Time,TemperatureF,DewpointF,PressureIn,WindDirection,WindDirectionDegrees,WindSpeedMPH,WindSpeedGustMPH,Humidity,HourlyPrecipIn,Conditions,Clouds,dailyrainin,SoftwareType,DateUTC
2013-01-11 00:00:00,50.1,49.3,29.79,ESE,117,2.0,2.0,97,0.00,,,0.25,Wunderground v.1.15,2013-01-11 06:00:00,
2013-01-11 00:05:00,49.9,49.1,29.79,ESE,113,2.0,4.0,97,0.00,,,0.00,Wunderground v.1.15,2013-01-11 06:05:00,
2013-01-11 00:15:00,49.7,48.6,29.79,SSE,158,2.0,14.0,96,0.00,,,0.00,Wunderground v.1.15,2013-01-11 06:15:00,
2013-01-11 00:25:00,49.5,48.4,29.79,East,101,2.0,14.0,96,0.00,,,0.00,Wunderground v.1.15,2013-01-11 06:25:00,
2013-01-11 00:34:00,49.4,48.3,29.79,ESE,120,2.0,14.0,96,0.00,,,0.00,Wunderground v.1.15,2013-01-11 06:34:00,
2013-01-11 00:40:00,49.4,48.3,29.79,SE,135,3.0,3.0,96,0.00,,,0.00,Wunderground v.1.15,2013-01-11 06:40:00,
2013-01-11 00:50:00,49.1,48.0,29.79,SW,217,2.0,14.0,96,0.00,,,0.00,Wunderground v.1.15,2013-01-11 06:50:00,
2013-01-11 01:00:00,49.0,47.9,29.80,East,94,1.0,1.0,96,0.00,,,0.00,Wunderground v.1.15,2013-01-11 07:00:00,
2013-01-11 01:10:00,48.9,47.8,29.80,SSW,207,2.0,14.0,96,0.00,,,0.00,Wunderground v.1.15,2013-01-11 07:10:00,
2013-01-11 01:20:00,48.8,47.7,29.80,ESE,120,2.0,2.0,96,0.00,,,0.00,Wunderground v.1.15,2013-01-11 07:20:00,
2013-01-11 01:30:00,48.7,47.6,29.81,ESE,113,2.0,14.0,96,0.00,,,0.00,Wunderground v.1.15,2013-01-11 07:30:00,
2013-01-11 01:40:00,48.5,47.4,29.81,ESE,105,2.0,2.0,96,0.00,,,0.00,Wunderground v.1.15,2013-01-11 07:40:00,
2013-01-11 01:50:00,48.8,47.7,29.82,ESE,117,3.0,14.0,96,0.00,,,0.00,Wunderground v.1.15,2013-01-11 07:50:00,
2013-01-11 02:00:00,49.0,47.6,29.82,ESE,115,3.0,3.0,95,0.00,,,0.00,Wunderground v.1.15,2013-01-11 08:00:00,
2013-01-11 02:10:00,49.1,47.7,29.82,ESE,103,2.0,14.0,95,0.00,,,0.00,Wunderground v.1.15,2013-01-11 08:10:00,
2013-01-11 02:20:00,49.2,47.5,29.82,ESE,113,3.0,3.0,94,0.00,,,0.00,Wunderground v.1.15,2013-01-11 08:20:00,
2013-01-11 02:30:00,49.3,47.6,29.81,SE,128,3.0,14.0,94,0.00,,,0.00,Wunderground v.1.15,2013-01-11 08:30:00,
2013-01-11 02:40:00,49.4,47.7,29.81,ESE,102,2.0,2.0,94,0.00,,,0.00,Wunderground v.1.15,2013-01-11 08:40:00,
2013-01-11 02:50:00,49.3,47.6,29.80,East,91,1.0,14.0,94,0.00,,,0.00,Wunderground v.1.15,2013-01-11 08:50:00,
2013-01-11 03:00:00,49.3,47.6,29.81,ESE,108,2.0,2.0,94,0.00,,,0.00,Wunderground v.1.15,2013-01-11 09:00:00,
2013-01-11 03:10:00,49.2,47.5,29.81,ESE,113,1.0,14.0,94,0.00,,,0.00,Wunderground v.1.15,2013-01-11 09:10:00,
2013-01-11 03:20:00,49.2,47.5,29.81,ESE,115,2.0,14.0,94,0.00,,,0.00,Wunderground v.1.15,2013-01-11 09:20:00,
2013-01-11 03:30:00,49.2,47.5,29.80,ESE,105,1.0,14.0,94,0.00,,,0.00,Wunderground v.1.15,2013-01-11 09:30:00,
2013-01-11 03:40:00,49.1,47.4,29.81,East,101,1.0,1.0,94,0.00,,,0.00,Wunderground v.1.15,2013-01-11 09:40:00,
2013-01-11 03:50:00,49.1,47.4,29.81,ESE,115,0.0,14.0,94,0.00,,,0.00,Wunderground v.1.15,2013-01-11 09:50:00,
2013-01-11 04:00:00,49.3,47.6,29.81,ESE,122,2.0,14.0,94,0.00,,,0.00,Wunderground v.1.15,2013-01-11 10:00:00,
2013-01-11 04:05:00,49.3,47.6,29.81,East,96,2.0,14.0,94,0.00,,,0.00,Wunderground v.1.15,2013-01-11 10:05:00,
2013-01-11 04:15:00,49.4,47.7,29.81,SE,131,2.0,14.0,94,0.00,,,0.00,Wunderground v.1.15,2013-01-11 10:15:00,
2013-01-11 04:25:00,49.5,47.8,29.81,East,98,1.0,14.0,94,0.00,,,0.00,Wunderground v.1.15,2013-01-11 10:25:00,
2013-01-11 04:35:00,49.5,47.8,29.81,ESE,120,1.0,14.0,94,0.00,,,0.00,Wunderground v.1.15,2013-01-11 10:35:00,
2013-01-11 04:45:00,49.7,48.0,29.81,SSE,157,2.0,14.0,94,0.00,,,0.00,Wunderground v.1.15,2013-01-11 10:45:00,
2013-01-11 04:55:00,49.9,48.0,29.81,ESE,115,3.0,14.0,93,0.00,,,0.00,Wunderground v.1.15,2013-01-11 10:55:00,
2013-01-11 05:04:00,50.0,48.1,29.81,SE,143,2.0,4.0,93,0.00,,,0.00,Wunderground v.1.15,2013-01-11 11:04:00,
2013-01-11 05:10:00,50.1,48.2,29.81,ESE,113,3.0,14.0,93,0.00,,,0.00,Wunderground v.1.15,2013-01-11 11:10:00,
2013-01-11 05:20:00,50.2,48.0,29.81,ESE,105,3.0,3.0,92,0.00,,,0.00,Wunderground v.1.15,2013-01-11 11:20:00,
2013-01-11 05:30:00,50.2,48.0,29.80,ESE,115,4.0,4.0,92,0.00,,,0.00,Wunderground v.1.15,2013-01-11 11:30:00,
2013-01-11 05:40:00,50.3,48.1,29.81,East,101,3.0,14.0,92,0.00,,,0.00,Wunderground v.1.15,2013-01-11 11:40:00,
2013-01-11 05:50:00,50.4,47.9,29.81,South,181,4.0,4.0,91,0.00,,,0.00,Wunderground v.1.15,2013-01-11 11:50:00,
2013-01-11 05:55:00,50.3,47.8,29.82,South,174,3.0,14.0,91,0.00,,,0.00,Wunderground v.1.15,2013-01-11 11:55:00,
2013-01-11 06:00:00,50.3,47.8,29.82,East,82,2.0,2.0,91,0.00,,,0.00,Wunderground v.1.15,2013-01-11 12:00:00,
2013-01-11 06:10:00,50.2,47.7,29.82,SSE,163,2.0,14.0,91,0.00,,,0.00,Wunderground v.1.15,2013-01-11 12:10:00,
2013-01-11 06:20:00,50.1,47.6,29.82,ESE,110,2.0,14.0,91,0.00,,,0.00,Wunderground v.1.15,2013-01-11 12:20:00,
2013-01-11 06:29:00,50.1,47.6,29.82,East,98,2.0,14.0,91,0.00,,,0.00,Wunderground v.1.15,2013-01-11 12:29:00,
2013-01-11 06:35:00,50.1,47.6,29.82,SSE,160,2.0,14.0,91,0.00,,,0.00,Wunderground v.1.15,2013-01-11 12:35:00,
2013-01-11 06:45:00,50.0,47.5,29.82,East,85,1.0,14.0,91,0.00,,,0.00,Wunderground v.1.15,2013-01-11 12:45:00,
2013-01-11 06:55:00,50.0,47.5,29.82,ESE,117,2.0,14.0,91,0.00,,,0.00,Wunderground v.1.15,2013-01-11 12:55:00,
2013-01-11 07:04:00,50.1,47.3,29.83,ESE,120,2.0,14.0,90,0.00,,,0.00,Wunderground v.1.15,2013-01-11 13:04:00,
2013-01-11 07:10:00,50.1,47.3,29.83,ESE,111,2.0,2.0,90,0.00,,,0.00,Wunderground v.1.15,2013-01-11 13:10:00,
2013-01-11 07:20:00,49.9,47.1,29.82,ESE,104,2.0,14.0,90,0.00,,,0.00,Wunderground v.1.15,2013-01-11 13:20:00,
2013-01-11 07:30:00,49.5,46.7,29.81,East,96,1.0,14.0,90,0.00,,,0.00,Wunderground v.1.15,2013-01-11 13:30:00,
2013-01-11 07:40:00,49.4,46.6,29.81,East,97,3.0,3.0,90,0.00,,,0.00,Wunderground v.1.15,2013-01-11 13:40:00,
2013-01-11 07:50:00,49.2,46.4,29.81,East,98,2.0,2.0,90,0.00,,,0.00,Wunderground v.1.15,2013-01-11 13:50:00,
2013-01-11 08:00:00,49.3,46.5,29.82,NE,49,1.0,14.0,90,0.00,,,0.00,Wunderground v.1.15,2013-01-11 14:00:00,
2013-01-11 08:10:00,49.4,46.6,29.81,ESE,117,2.0,14.0,90,0.00,,,0.00,Wunderground v.1.15,2013-01-11 14:10:00,
2013-01-11 08:20:00,49.5,46.7,29.81,SE,132,2.0,2.0,90,0.00,,,0.00,Wunderground v.1.15,2013-01-11 14:20:00,
2013-01-11 08:30:00,49.2,46.4,29.81,NNW,342,1.0,14.0,90,0.00,,,0.00,Wunderground v.1.15,2013-01-11 14:30:00,
2013-01-11 08:40:00,49.1,46.3,29.81,ESE,120,2.0,14.0,90,0.00,,,0.00,Wunderground v.1.15,2013-01-11 14:40:00,
2013-01-11 08:45:00,49.2,46.4,29.81,ESE,103,2.0,14.0,90,0.00,,,0.00,Wunderground v.1.15,2013-01-11 14:45:00,
2013-01-11 08:50:00,49.3,46.5,29.81,ESE,105,2.0,2.0,90,0.00,,,0.00,Wunderground v.1.15,2013-01-11 14:50:00,
2013-01-11 08:55:00,49.5,46.7,29.80,ESE,103,3.0,3.0,90,0.00,,,0.00,Wunderground v.1.15,2013-01-11 14:55:00,
2013-01-11 09:05:00,50.1,47.0,29.80,SE,143,3.0,14.0,89,0.00,,,0.00,Wunderground v.1.15,2013-01-11 15:05:00,
2013-01-11 09:15:00,51.6,47.9,29.80,SE,134,5.0,5.0,87,0.00,,,0.00,Wunderground v.1.15,2013-01-11 15:15:00,
2013-01-11 09:25:00,52.9,48.2,29.80,ENE,77,6.0,14.0,84,0.00,,,0.00,Wunderground v.1.15,2013-01-11 15:25:00,
2013-01-11 09:35:00,53.2,47.8,29.80,East,99,6.0,9.0,82,0.00,,,0.00,Wunderground v.1.15,2013-01-11 15:35:00,
2013-01-11 09:45:00,53.5,48.1,29.80,ESE,103,4.0,14.0,82,0.00,,,0.00,Wunderground v.1.15,2013-01-11 15:45:00,
2013-01-11 09:55:00,53.7,48.0,29.80,SE,143,5.0,14.0,81,0.00,,,0.00,Wunderground v.1.15,2013-01-11 15:55:00,
2013-01-11 10:05:00,54.5,48.1,29.79,ESE,108,6.0,6.0,79,0.00,,,0.00,Wunderground v.1.15,2013-01-11 16:05:00,
2013-01-11 10:15:00,55.3,48.6,29.78,ENE,74,6.0,14.0,78,0.00,,,0.00,Wunderground v.1.15,2013-01-11 16:15:00,
2013-01-11 10:25:00,56.4,48.9,29.79,East,101,5.0,14.0,76,0.00,,,0.00,Wunderground v.1.15,2013-01-11 16:25:00,
2013-01-11 10:35:00,57.1,48.5,29.79,ESE,123,6.0,14.0,73,0.00,,,0.00,Wunderground v.1.15,2013-01-11 16:35:00,
2013-01-11 10:45:00,57.3,48.3,29.79,ESE,108,7.0,14.0,72,0.00,,,0.00,Wunderground v.1.15,2013-01-11 16:45:00,
2013-01-11 10:55:00,57.8,48.5,29.79,East,96,7.0,9.0,71,0.00,,,0.00,Wunderground v.1.15,2013-01-11 16:55:00,
2013-01-11 11:05:00,58.2,48.1,29.77,SE,129,8.0,14.0,69,0.00,,,0.00,Wunderground v.1.15,2013-01-11 17:05:00,
2013-01-11 11:10:00,58.4,47.9,29.77,SSE,148,7.0,7.0,68,0.00,,,0.00,Wunderground v.1.15,2013-01-11 17:10:00,
2013-01-11 11:20:00,59.1,48.1,29.77,East,101,6.0,14.0,67,0.00,,,0.00,Wunderground v.1.15,2013-01-11 17:20:00,
2013-01-11 11:30:00,60.5,48.3,29.76,NNW,340,6.0,14.0,64,0.00,,,0.00,Wunderground v.1.15,2013-01-11 17:30:00,
2013-01-11 11:40:00,61.9,48.3,29.75,SE,134,6.0,14.0,61,0.00,,,0.00,Wunderground v.1.15,2013-01-11 17:40:00,
2013-01-11 11:50:00,62.4,48.3,29.75,SE,124,7.0,7.0,60,0.00,,,0.00,Wunderground v.1.15,2013-01-11 17:50:00,
2013-01-11 12:00:00,63.2,48.2,29.73,ESE,104,6.0,15.0,58,0.00,,,0.00,Wunderground v.1.15,2013-01-11 18:00:00,
2013-01-11 12:10:00,63.6,47.1,29.73,NE,45,6.0,14.0,55,0.00,,,0.00,Wunderground v.1.15,2013-01-11 18:10:00,
2013-01-11 12:20:00,62.3,46.4,29.72,SE,124,8.0,14.0,56,0.00,,,0.00,Wunderground v.1.15,2013-01-11 18:20:00,
2013-01-11 12:30:00,62.7,47.2,29.72,East,95,8.0,14.0,57,0.00,,,0.00,Wunderground v.1.15,2013-01-11 18:30:00,
2013-01-11 12:40:00,62.5,47.1,29.72,ENE,65,8.0,8.0,57,0.00,,,0.00,Wunderground v.1.15,2013-01-11 18:40:00,
2013-01-11 12:50:00,62.5,46.6,29.72,ENE,75,6.0,14.0,56,0.00,,,0.00,Wunderground v.1.15,2013-01-11 18:50:00,
2013-01-11 13:00:00,62.6,47.1,29.73,SE,135,7.0,14.0,57,0.00,,,0.00,Wunderground v.1.15,2013-01-11 19:00:00,
2013-01-11 13:10:00,62.5,47.1,29.72,ESE,107,6.0,6.0,57,0.00,,,0.00,Wunderground v.1.15,2013-01-11 19:10:00,
2013-01-11 13:15:00,62.6,47.1,29.71,SE,142,7.0,8.0,57,0.00,,,0.00,Wunderground v.1.15,2013-01-11 19:15:00,
2013-01-11 13:25:00,62.8,47.3,29.71,SE,128,5.0,8.0,57,0.00,,,0.00,Wunderground v.1.15,2013-01-11 19:25:00,
2013-01-11 13:35:00,62.8,47.3,29.71,SE,132,7.0,15.0,57,0.00,,,0.00,Wunderground v.1.15,2013-01-11 19:35:00,
2013-01-11 13:44:00,63.1,47.1,29.72,SE,124,7.0,14.0,56,0.00,,,0.00,Wunderground v.1.15,2013-01-11 19:44:00,
2013-01-11 13:50:00,63.0,47.5,29.72,SE,129,6.0,6.0,57,0.00,,,0.00,Wunderground v.1.15,2013-01-11 19:50:00,
2013-01-11 14:00:00,64.2,47.7,29.71,ESE,118,6.0,14.0,55,0.00,,,0.00,Wunderground v.1.15,2013-01-11 20:00:00,
2013-01-11 14:10:00,64.4,47.4,29.71,South,181,7.0,7.0,54,0.00,,,0.00,Wunderground v.1.15,2013-01-11 20:10:00,
2013-01-11 14:20:00,64.6,47.6,29.71,ESE,120,6.0,14.0,54,0.00,,,0.00,Wunderground v.1.15,2013-01-11 20:20:00,
2013-01-11 14:30:00,65.0,47.9,29.70,ENE,65,8.0,14.0,54,0.00,,,0.00,Wunderground v.1.15,2013-01-11 20:30:00,
2013-01-11 14:40:00,65.0,47.9,29.70,East,101,7.0,14.0,54,0.00,,,0.00,Wunderground v.1.15,2013-01-11 20:40:00,
2013-01-11 14:50:00,65.7,48.1,29.70,ENE,69,8.0,8.0,53,0.00,,,0.00,Wunderground v.1.15,2013-01-11 20:50:00,
2013-01-11 15:00:00,66.0,47.9,29.70,ESE,110,7.0,14.0,52,0.00,,,0.00,Wunderground v.1.15,2013-01-11 21:00:00,
2013-01-11 15:09:00,65.7,48.1,29.70,East,99,8.0,14.0,53,0.00,,,0.00,Wunderground v.1.15,2013-01-11 21:09:00,
2013-01-11 15:15:00,65.7,48.1,29.70,ESE,114,7.0,14.0,53,0.00,,,0.00,Wunderground v.1.15,2013-01-11 21:15:00,
2013-01-11 15:25:00,65.7,48.1,29.70,East,97,6.0,14.0,53,0.00,,,0.00,Wunderground v.1.15,2013-01-11 21:25:00,
2013-01-11 15:35:00,64.9,47.9,29.70,East,98,7.0,14.0,54,0.00,,,0.00,Wunderground v.1.15,2013-01-11 21:35:00,
2013-01-11 15:44:00,64.0,48.0,29.70,ESE,110,8.0,11.0,56,0.00,,,0.00,Wunderground v.1.15,2013-01-11 21:44:00,
2013-01-11 15:50:00,63.8,47.8,29.70,ENE,61,7.0,7.0,56,0.00,,,0.00,Wunderground v.1.15,2013-01-11 21:50:00,
2013-01-11 16:00:00,63.5,48.0,29.70,East,98,6.0,6.0,57,0.00,,,0.00,Wunderground v.1.15,2013-01-11 22:00:00,
2013-01-11 16:10:00,62.9,48.3,29.70,ESE,105,4.0,14.0,59,0.00,,,0.00,Wunderground v.1.15,2013-01-11 22:10:00,
2013-01-11 16:20:00,62.4,48.8,29.70,ESE,105,5.0,14.0,61,0.00,,,0.00,Wunderground v.1.15,2013-01-11 22:20:00,
2013-01-11 16:25:00,62.1,48.5,29.70,ESE,102,5.0,14.0,61,0.00,,,0.00,Wunderground v.1.15,2013-01-11 22:25:00,
2013-01-11 16:35:00,61.7,48.5,29.70,ESE,108,5.0,14.0,62,0.00,,,0.00,Wunderground v.1.15,2013-01-11 22:35:00,
2013-01-11 16:40:00,61.5,48.4,29.71,ESE,115,5.0,5.0,62,0.00,,,0.00,Wunderground v.1.15,2013-01-11 22:40:00,
2013-01-11 16:50:00,60.9,48.6,29.70,East,82,4.0,4.0,64,0.00,,,0.00,Wunderground v.1.15,2013-01-11 22:50:00,
2013-01-11 17:00:00,60.3,48.5,29.71,East,86,5.0,5.0,65,0.00,,,0.00,Wunderground v.1.15,2013-01-11 23:00:00,
2013-01-11 17:10:00,59.7,48.3,29.70,East,84,4.0,4.0,66,0.00,,,0.00,Wunderground v.1.15,2013-01-11 23:10:00,
2013-01-11 17:19:00,59.2,48.2,29.70,ESE,105,3.0,3.0,67,0.00,,,0.00,Wunderground v.1.15,2013-01-11 23:19:00,
2013-01-11 17:25:00,59.1,48.1,29.70,ESE,104,4.0,5.0,67,0.00,,,0.00,Wunderground v.1.15,2013-01-11 23:25:00,
2013-01-11 17:35:00,58.9,48.4,29.70,East,99,3.0,14.0,68,0.00,,,0.00,Wunderground v.1.15,2013-01-11 23:35:00,
2013-01-11 17:45:00,58.8,48.3,29.71,ESE,106,3.0,14.0,68,0.00,,,0.00,Wunderground v.1.15,2013-01-11 23:45:00,
2013-01-11 17:55:00,58.6,48.1,29.70,ENE,62,3.0,14.0,68,0.00,,,0.00,Wunderground v.1.15,2013-01-11 23:55:00,
2013-01-11 18:05:00,58.4,47.9,29.71,ESE,107,4.0,4.0,68,0.00,,,0.00,Wunderground v.1.15,2013-01-12 00:05:00,
2013-01-11 18:15:00,58.2,47.7,29.70,ESE,110,2.0,14.0,68,0.00,,,0.00,Wunderground v.1.15,2013-01-12 00:15:00,
2013-01-11 18:25:00,57.9,47.8,29.71,NE,52,2.0,3.0,69,0.00,,,0.00,Wunderground v.1.15,2013-01-12 00:25:00,
2013-01-11 18:30:00,57.9,47.8,29.71,NE,52,2.0,2.0,69,0.00,,,0.00,Wunderground v.1.15,2013-01-12 00:30:00,
2013-01-11 18:40:00,57.7,47.6,29.71,NNE,20,2.0,14.0,69,0.00,,,0.00,Wunderground v.1.15,2013-01-12 00:40:00,
2013-01-11 18:50:00,57.4,47.7,29.72,North,355,2.0,2.0,70,0.00,,,0.00,Wunderground v.1.15,2013-01-12 00:50:00,
2013-01-11 19:00:00,57.3,47.6,29.71,ESE,123,2.0,2.0,70,0.00,,,0.00,Wunderground v.1.15,2013-01-12 01:00:00,
2013-01-11 19:10:00,57.4,47.7,29.70,East,90,2.0,2.0,70,0.00,,,0.00,Wunderground v.1.15,2013-01-12 01:10:00,
2013-01-11 19:20:00,57.6,47.9,29.70,ESE,115,3.0,3.0,70,0.00,,,0.00,Wunderground v.1.15,2013-01-12 01:20:00,
2013-01-11 19:30:00,58.0,47.9,29.71,ENE,65,4.0,4.0,69,0.00,,,0.00,Wunderground v.1.15,2013-01-12 01:30:00,
2013-01-11 19:40:00,58.1,47.6,29.71,ENE,71,3.0,14.0,68,0.00,,,0.00,Wunderground v.1.15,2013-01-12 01:40:00,
2013-01-11 19:50:00,58.4,47.9,29.71,ESE,120,4.0,14.0,68,0.00,,,0.00,Wunderground v.1.15,2013-01-12 01:50:00,
2013-01-11 20:00:00,58.5,47.6,29.72,ESE,104,5.0,14.0,67,0.00,,,0.00,Wunderground v.1.15,2013-01-12 02:00:00,
2013-01-11 20:10:00,58.4,47.9,29.73,ESE,122,4.0,14.0,68,0.00,,,0.00,Wunderground v.1.15,2013-01-12 02:10:00,
2013-01-11 20:20:00,58.3,47.8,29.73,SE,127,5.0,14.0,68,0.00,,,0.00,Wunderground v.1.15,2013-01-12 02:20:00,
2013-01-11 20:30:00,58.2,47.7,29.73,East,86,4.0,14.0,68,0.00,,,0.00,Wunderground v.1.15,2013-01-12 02:30:00,
2013-01-11 20:40:00,58.2,47.7,29.73,ESE,104,4.0,14.0,68,0.00,,,0.00,Wunderground v.1.15,2013-01-12 02:40:00,
2013-01-11 20:50:00,58.2,47.7,29.74,SE,129,3.0,14.0,68,0.00,,,0.00,Wunderground v.1.15,2013-01-12 02:50:00,
2013-01-11 21:00:00,58.5,47.2,29.74,East,91,4.0,4.0,66,0.00,,,0.00,Wunderground v.1.15,2013-01-12 03:00:00,
2013-01-11 21:05:00,58.5,47.6,29.74,SE,127,4.0,5.0,67,0.00,,,0.00,Wunderground v.1.15,2013-01-12 03:05:00,
2013-01-11 21:10:00,58.3,47.4,29.74,East,94,4.0,4.0,67,0.00,,,0.00,Wunderground v.1.15,2013-01-12 03:10:00,
2013-01-11 21:20:00,58.1,47.2,29.74,ESE,109,3.0,14.0,67,0.00,,,0.00,Wunderground v.1.15,2013-01-12 03:20:00,
2013-01-11 21:29:00,58.0,47.1,29.74,SE,127,4.0,14.0,67,0.00,,,0.00,Wunderground v.1.15,2013-01-12 03:29:00,
2013-01-11 21:35:00,58.1,47.2,29.75,East,99,3.0,14.0,67,0.00,,,0.00,Wunderground v.1.15,2013-01-12 03:35:00,
2013-01-11 21:45:00,58.1,47.2,29.75,East,93,4.0,5.0,67,0.00,,,0.00,Wunderground v.1.15,2013-01-12 03:45:00,
2013-01-11 21:55:00,58.1,46.8,29.75,SSE,156,3.0,14.0,66,0.00,,,0.00,Wunderground v.1.15,2013-01-12 03:55:00,
2013-01-11 22:00:00,58.2,46.9,29.75,East,91,3.0,14.0,66,0.00,,,0.00,Wunderground v.1.15,2013-01-12 04:00:00,
2013-01-11 22:05:00,58.4,46.7,29.75,ESE,103,4.0,14.0,65,0.00,,,0.00,Wunderground v.1.15,2013-01-12 04:05:00,
2013-01-11 22:10:00,58.6,46.9,29.75,ESE,111,5.0,5.0,65,0.00,,,0.00,Wunderground v.1.15,2013-01-12 04:10:00,
2013-01-11 22:15:00,58.6,46.9,29.75,ESE,114,4.0,14.0,65,0.00,,,0.00,Wunderground v.1.15,2013-01-12 04:15:00,
2013-01-11 22:24:00,58.3,46.6,29.75,ENE,60,2.0,14.0,65,0.00,,,0.00,Wunderground v.1.15,2013-01-12 04:24:00,
2013-01-11 22:30:00,58.3,46.6,29.75,ENE,70,2.0,14.0,65,0.00,,,0.00,Wunderground v.1.15,2013-01-12 04:30:00,
2013-01-11 22:40:00,58.4,46.7,29.75,SE,127,3.0,14.0,65,0.00,,,0.00,Wunderground v.1.15,2013-01-12 04:40:00,
2013-01-11 22:50:00,58.8,46.6,29.76,ESE,113,4.0,14.0,64,0.00,,,0.00,Wunderground v.1.15,2013-01-12 04:50:00,
2013-01-11 23:00:00,59.0,46.8,29.76,East,100,5.0,14.0,64,0.00,,,0.00,Wunderground v.1.15,2013-01-12 05:00:00,
2013-01-11 23:04:00,59.0,46.8,29.76,East,81,4.0,14.0,64,0.00,,,0.00,Wunderground v.1.15,2013-01-12 05:04:00,
2013-01-11 23:10:00,59.1,46.9,29.76,ESE,104,4.0,14.0,64,0.00,,,0.00,Wunderground v.1.15,2013-01-12 05:10:00,
2013-01-11 23:15:00,59.1,46.9,29.76,East,81,5.0,14.0,64,0.00,,,0.00,Wunderground v.1.15,2013-01-12 05:15:00,
2013-01-11 23:20:00,59.1,46.9,29.75,SE,124,5.0,5.0,64,0.00,,,0.00,Wunderground v.1.15,2013-01-12 05:20:00,
2013-01-11 23:30:00,59.3,47.1,29.75,ESE,111,4.0,4.0,64,0.00,,,0.00,Wunderground v.1.15,2013-01-12 05:30:00,
2013-01-11 23:40:00,59.1,46.9,29.75,ESE,110,3.0,3.0,64,0.00,,,0.00,Wunderground v.1.15,2013-01-12 05:40:00,
2013-01-11 23:45:00,59.2,47.0,29.75,SE,133,4.0,5.0,64,0.00,,,0.00,Wunderground v.1.15,2013-01-12 05:45:00,
2013-01-11 23:54:00,59.6,47.4,29.75,ESE,120,4.0,14.0,64,0.00,,,0.00,Wunderground v.1.15,2013-01-12 05:54:00,